• Join FlightAware (Why Join?)
  • Login
  • US Flag 
02:04AM EST


 

Airport Tracker/Info


-or-


 

Live Flight TrackerFlight Track Log ✈ UAL129 ✈ 22-Apr-2013 ✈ KIAH - SBGL / GIG

Flight Track Log - Related Links

Times and Time Zones

All times are in EDT time to prevent confusion due to time zone crossing. See the UAL129 flight status page for this flight to view local times or setup timezone preferences in your user account.

Time Position Orientation Groundspeed Altitude Reporting Facility
EDT Latitude Longitude Course Direction KTS MPH feet Rate Location/Type
10:22PM 29.9762 -95.2875 241° Southwest 180 207 1,000  Level FlightAware ADS-B
10:22PM 29.9755 -95.2826 99° East 184 212 1,200 1,860 Climbing FlightAware ADS-B
10:22PM 29.9740 -95.2725 100° East 184 212 1,500 1,620 Climbing FlightAware ADS-B
10:22PM 29.9718 -95.2607 102° East 194 223 1,800 1,380 Climbing FlightAware ADS-B
10:22PM 29.9702 -95.2503 100° East 203 234 2,000 1,140 Climbing FlightAware ADS-B
10:22PM 29.9670 -95.2333 102° East 219 252 2,300 960 Climbing FlightAware ADS-B
10:23PM 29.9638 -95.2152 102° East 237 273 2,500 1,320 Climbing FlightAware ADS-B
10:23PM 29.9612 -95.1999 101° East 242 278 2,900 2,220 Climbing FlightAware ADS-B
10:23PM 29.9576 -95.1803 102° East 248 285 3,500 2,160 Climbing FlightAware ADS-B
10:23PM 29.9566 -95.1753 103° East 244 281 3,600 1,680 Climbing FlightAware ADS-B
10:23PM 29.9540 -95.1616 102° East 257 296 3,900 2,040 Climbing FlightAware ADS-B
10:24PM 29.9506 -95.1408 101° East 263 303 4,500 2,040 Climbing FlightAware ADS-B
10:24PM 29.9475 -95.1229 101° East 270 311 4,900 1,740 Climbing FlightAware ADS-B
10:24PM 29.9463 -95.1164 102° East 273 314 5,000 1,560 Climbing FlightAware ADS-B
10:24PM 29.9437 -95.1013 101° East 278 320 5,300 1,980 Climbing FlightAware ADS-B
10:24PM 29.9427 -95.0953 101° East 277 319 5,500 2,760 Climbing FlightAware ADS-B
10:24PM 29.9406 -95.0826 101° East 277 319 5,900 2,460 Climbing FlightAware ADS-B
10:24PM 29.9398 -95.0779 101° East 276 318 6,000 2,400 Climbing FlightAware ADS-B
10:25PM 29.9363 -95.0603 103° East 280 322 6,500 2,400 Climbing FlightAware ADS-B
10:25PM 29.9353 -95.0555 104° East 280 322 6,600 1,620 Climbing FlightAware ADS-B
10:25PM 29.9328 -95.0432 103° East 285 328 6,800 1,500 Climbing FlightAware ADS-B
10:25PM 29.9318 -95.0385 104° East 286 329 6,900 1,500 Climbing FlightAware ADS-B
10:25PM 29.9306 -95.0327 103° East 287 330 7,000 2,400 Climbing FlightAware ADS-B
10:25PM 29.9303 -95.0313 104° East 288 331 7,100 1,980 Climbing FlightAware ADS-B
10:25PM 29.9272 -95.0196 107° East 290 334 7,300 1,980 Climbing FlightAware ADS-B
10:25PM 29.9254 -95.0134 109° East 291 335 7,500 2,220 Climbing FlightAware ADS-B
10:25PM 29.9202 -94.9952 108° East 294 338 7,900 1,860 Climbing FlightAware ADS-B
10:25PM 29.9188 -94.9897 106° East 295 339 8,000 2,400 Climbing FlightAware ADS-B
10:26PM 29.9136 -94.9726 109° East 296 341 8,500 2,400 Climbing FlightAware ADS-B
10:26PM 29.9120 -94.9665 107° East 297 342 8,600 1,860 Climbing FlightAware ADS-B
10:26PM 29.9052 -94.9442 109° East 299 344 9,100 2,220 Climbing FlightAware ADS-B
10:26PM 29.9049 -94.9429 105° East 300 345 9,200 1,860 Climbing FlightAware ADS-B
10:26PM 29.8982 -94.9211 110° East 304 350 9,600 1,860 Climbing FlightAware ADS-B
10:26PM 29.8975 -94.9187 109° East 305 351 9,700 1,740 Climbing FlightAware ADS-B
10:27PM 29.8832 -94.8713 109° East 323 372 10,500 1,200 Climbing FlightAware ADS-B
10:27PM 29.8677 -94.8197 109° East 356 410 10,900 720 Climbing FlightAware ADS-B
10:27PM 29.8668 -94.8168 110° East 357 411 10,900 780 Level FlightAware ADS-B
10:28PM 29.8506 -94.7632 109° East 385 443 11,300 960 Climbing FlightAware ADS-B
10:28PM 29.8492 -94.7584 109° East 386 444 11,400 1,140 Climbing FlightAware ADS-B
10:28PM 29.8324 -94.7024 109° East 408 470 11,900 1,200 Climbing FlightAware ADS-B
10:28PM 29.8310 -94.6981 111° Southeast 409 471 12,000 1,560 Climbing FlightAware ADS-B
10:29PM 29.8132 -94.6391 109° East 423 487 12,700 1,560 Climbing FlightAware ADS-B
10:29PM 29.8091 -94.6256 109° East 425 489 12,900 1,980 Climbing FlightAware ADS-B
10:29PM 29.7937 -94.5741 109° East 432 497 13,700 1,920 Climbing FlightAware ADS-B
10:29PM 29.7874 -94.5534 109° East 432 497 14,000 2,100 Climbing FlightAware ADS-B
10:30PM 29.7736 -94.5078 109° East 436 502 14,800 2,160 Climbing FlightAware ADS-B
10:30PM 29.7650 -94.4795 109° East 439 505 15,200 1,800 Climbing FlightAware ADS-B
10:30PM 29.7532 -94.4405 109° East 444 511 15,700 1,800 Climbing FlightAware ADS-B
10:30PM 29.7428 -94.4064 109° East 439 505 16,200 1,740 Climbing FlightAware ADS-B
10:31PM 29.7347 -94.3793 109° East 451 519 16,500 1,680 Climbing FlightAware ADS-B
10:31PM 29.7257 -94.3427 106° East 454 522 17,000 1,860 Climbing FlightAware ADS-B
10:31PM 29.7245 -94.3368 103° East 448 516 17,100 1,740 Climbing FlightAware ADS-B
10:31PM 29.7147 -94.2688 99° East 459 528 17,900 1,740 Climbing FlightAware ADS-B
10:32PM 29.7067 -94.1972 97° East 463 533 18,800 1,800 Climbing FlightAware ADS-B
10:32PM 29.7058 -94.1893 97° East 465 535 18,900 1,440 Climbing FlightAware ADS-B
10:32PM 29.6979 -94.1148 97° East 473 544 19,600 1,440 Climbing FlightAware ADS-B
10:32PM 29.6972 -94.1081 97° East 474 545 19,700 1,560 Climbing FlightAware ADS-B
10:33PM 29.6917 -94.0492 96° East 477 549 20,300 1,500 Climbing FlightAware ADS-B
10:33PM 29.6910 -94.0383 94° East 478 550 20,400 1,500 Climbing FlightAware ADS-B
10:33PM 29.6892 -93.9716 92° East 482 555 21,100 1,500 Climbing FlightAware ADS-B
10:33PM 29.6890 -93.9600 91° East 483 556 21,200 1,500 Climbing FlightAware ADS-B
10:34PM 29.6883 -93.8814 91° East 488 562 22,000 1,560 Climbing FlightAware ADS-B
10:34PM 29.6881 -93.8723 91° East 486 559 22,100 1,380 Climbing FlightAware ADS-B
10:34PM 29.6878 -93.8025 90° East 492 566 22,700 1,320 Climbing FlightAware ADS-B
10:35PM 29.6873 -93.7209 90° East 497 572 23,400 1,320 Climbing FlightAware ADS-B
10:35PM 29.6866 -93.6400 91° East 502 578 24,100 1,440 Climbing FlightAware ADS-B
10:36PM 29.6859 -93.5598 91° East 502 578 24,900 1,620 Climbing FlightAware ADS-B
10:37PM 29.6852 -93.4785 91° East 498 573 25,800 1,680 Climbing FlightAware ADS-B
10:37PM 29.6844 -93.3992 91° East 496 571 26,600 1,500 Climbing FlightAware ADS-B
10:37PM 29.6837 -93.3543 91° East 496 571 27,000 1,500 Climbing FlightAware ADS-B
10:38PM 29.6787 -93.2980 96° East 496 571 27,600 1,560 Climbing FlightAware ADS-B
10:38PM 29.6701 -93.2455 101° East 495 570 28,100 1,320 Climbing FlightAware ADS-B
10:38PM 29.6534 -93.1688 104° East 494 568 28,700 1,140 Climbing FlightAware ADS-B
10:39PM 29.6369 -93.0900 104° East 494 568 29,300 1,080 Climbing FlightAware ADS-B
10:40PM 29.6202 -93.0135 104° East 496 571 29,800 960 Climbing FlightAware ADS-B
10:40PM 29.6033 -92.9368 104° East 496 571 30,300 1,080 Climbing FlightAware ADS-B
10:41PM 29.5859 -92.8594 104° East 497 572 30,900 660 Climbing FlightAware ADS-B
10:41PM 29.5679 -92.7798 105° East 500 575 31,000 60 Climbing FlightAware ADS-B
10:42PM 29.5503 -92.7016 104° East 500 575 31,000  Level FlightAware ADS-B
10:42PM 29.5320 -92.6213 105° East 500 575 31,000  Level FlightAware ADS-B
10:43PM 29.4945 -92.4566 105° East 500 575 31,000  Level FlightAware ADS-B
10:44PM 29.4769 -92.3801 105° East 498 573 31,000  Level FlightAware ADS-B
10:44PM 29.4589 -92.3016 105° East 498 573 31,000  Level FlightAware ADS-B
10:45PM 29.4412 -92.2246 105° East 497 572 31,000  Level FlightAware ADS-B
10:45PM 29.4113 -92.0958 105° East 498 573 31,000  Level FlightAware ADS-B
10:48PM 29.3305 -91.7498 105° East 498 573 31,100  Climbing FlightAware ADS-B
10:48PM 29.3106 -91.7031 105° East 497 572 31,000 -120 Descending Houston Center
10:49PM 29.2750 -91.5506 105° East 497 572 31,000  Level Houston Center
10:50PM 29.2378 -91.3961 105° East 503 579 31,000  Level Houston Center
10:51PM 29.2011 -91.2442 105° East 501 577 31,000  Level Houston Center
10:52PM 29.1631 -91.0900 106° East 504 580 31,000  Level Houston Center
10:53PM 29.1261 -90.9364 105° East 503 579 31,000  Level Houston Center
10:54PM 29.0883 -90.7828 106° East 503 579 31,000  Level Houston Center
10:55PM 29.0506 -90.6289 106° East 505 581 31,000  Level Houston Center
10:56PM 29.0125 -90.4761 106° East 504 580 31,000  Level Houston Center
10:57PM 28.9667 -90.2922 106° East 503 579 31,000  Level Houston Center
10:58PM 28.9281 -90.1375 106° East 505 581 31,000  Level Houston Center
10:59PM 28.8900 -89.9844 106° East 504 580 31,000  Level Houston Center
11:00PM 28.8503 -89.8314 106° East 505 581 31,000  Level Houston Center
11:01PM 28.8122 -89.6783 106° East 505 581 31,000  Level Houston Center
11:02PM 28.7731 -89.5244 106° East 508 585 31,000  Level Houston Center
11:03PM 28.7342 -89.3739 106° East 500 575 31,000  Level Houston Center
11:04PM 28.6944 -89.2203 106° East 503 579 31,000  Level Houston Center
11:05PM 28.6556 -89.0675 106° East 506 582 31,000  Level Houston Center
11:06PM 28.6164 -88.9153 106° East 504 580 31,000  Level Houston Center
11:07PM 28.5675 -88.7325 107° East 506 582 31,000  Level Houston Center
11:09PM 28.5281 -88.5806 106° East 503 579 31,000  Level Houston Center
11:10PM 28.4817 -88.4181 108° East 509 586 31,000  Level Jacksonville Center
11:11PM 28.4364 -88.2600 108° East 509 586 31,000  Level Jacksonville Center
11:12PM 28.3864 -88.1086 111° Southeast 510 587 31,000  Level Jacksonville Center
11:13PM 28.3381 -87.9553 110° East 515 593 31,000  Level Jacksonville Center
11:14PM 28.2956 -87.8211 110° East 496 571 31,000  Level Jacksonville Center
11:15PM 28.2469 -87.6703 110° East 496 571 31,000  Level Jacksonville Center
11:16PM 28.1939 -87.5219 112° Southeast 502 578 31,000  Level Jacksonville Center
11:17PM 28.1450 -87.3739 110° East 502 578 31,000  Level Jacksonville Center
11:18PM 28.0919 -87.2186 111° Southeast 499 574 31,000  Level Jacksonville Center
11:23PM 27.8120 -86.4160 111° Southeast 505 581 31,000  Level FlightAware
11:24PM 27.7780 -86.3190 112° Southeast 505 581 31,000  Level FlightAware
11:24PM 27.7500 -86.2330 110° East 505 581 31,000  Level FlightAware
11:25PM 27.7230 -86.1490 110° East 505 581 31,000  Level FlightAware
11:26PM 27.6960 -86.0650 110° East 505 581 31,000  Level FlightAware
11:26PM 27.6310 -85.9000 114° Southeast 507 583 31,000  Level FlightAware
11:27PM 27.5970 -85.8020 111° Southeast 507 583 31,000  Level FlightAware
11:28PM 27.5610 -85.7020 112° Southeast 507 583 31,000  Level FlightAware
11:28PM 27.5280 -85.6080 112° Southeast 507 583 31,000  Level FlightAware
11:29PM 27.4940 -85.5080 111° Southeast 507 583 31,000  Level FlightAware
11:30PM 27.4670 -85.4240 110° East 507 583 31,000  Level FlightAware
11:31PM 27.4390 -85.3390 110° East 507 583 31,000  Level FlightAware
11:31PM 27.4050 -85.2340 110° East 507 583 31,000  Level FlightAware
11:32PM 27.3380 -85.0760 115° Southeast 508 585 31,000  Level FlightAware
11:33PM 27.3020 -84.9760 112° Southeast 505 581 31,000  Level FlightAware
11:36PM 27.1560 -84.5710 112° Southeast 510 587 31,000  Level FlightAware
11:36PM 27.1110 -84.4450 112° Southeast 510 587 31,000  Level FlightAware
11:37PM 27.0640 -84.3160 112° Southeast 511 588 31,000  Level FlightAware
11:38PM 27.0260 -84.2120 112° Southeast 511 588 31,000  Level FlightAware
11:39PM 26.9700 -84.0590 112° Southeast 513 590 31,000  Level FlightAware
11:40PM 26.9390 -83.9750 112° Southeast 513 590 31,000  Level FlightAware
11:40PM 26.9090 -83.8910 112° Southeast 513 590 31,000  Level FlightAware
11:41PM 26.8710 -83.7860 112° Southeast 513 590 31,000  Level FlightAware
11:42PM 26.8410 -83.7020 112° Southeast 513 590 31,000  Level FlightAware
11:46PM 26.6070 -83.0770 113° Southeast 514 592 31,000  Level FlightAware
11:47PM 26.5710 -82.9720 111° Southeast 514 592 31,000  Level FlightAware
11:48PM 26.4490 -82.6620 114° Southeast 518 596 31,000  Level FlightAware
11:50PM 26.3500 -82.4000 113° Southeast 515 593 31,000  Level FlightAware
11:51PM 26.2770 -82.2080 113° Southeast 515 593 31,000  Level FlightAware
11:52PM 26.2300 -82.0840 113° Southeast 516 594 31,000  Level FlightAware
11:53PM 26.1880 -81.9740 113° Southeast 516 594 31,000  Level FlightAware
11:54PM 26.1470 -81.8670 113° Southeast 515 593 31,000  Level FlightAware
11:55PM 26.0810 -81.6970 113° Southeast 515 593 31,000  Level FlightAware
11:56PM 26.0140 -81.5220 113° Southeast 517 595 31,000  Level FlightAware
11:57PM 25.9470 -81.3510 114° Southeast 516 594 31,000  Level FlightAware
11:59PM 25.8660 -81.1430 113° Southeast 513 590 31,000  Level FlightAware
12:00AM 25.8000 -80.9740 113° Southeast 511 588 31,000  Level FlightAware
12:01AM 25.7340 -80.8050 113° Southeast 509 586 31,000 300 Level FlightAware
12:02AM 25.6720 -80.6480 114° Southeast 510 587 31,700 720 Climbing FlightAware
12:03AM 25.6000 -80.4670 114° Southeast 519 597 32,700 480 Climbing FlightAware
12:05AM 25.5310 -80.2940 114° Southeast 522 601 33,000 120 Climbing FlightAware
12:06AM 25.4540 -80.1010 114° Southeast 519 597 33,000  Level FlightAware
12:07AM 25.3860 -79.9320 114° Southeast 517 595 33,000  Level FlightAware
12:08AM 25.3120 -79.7500 114° Southeast 516 594 33,000  Level FlightAware
12:09AM 25.2740 -79.6560 114° Southeast 517 595 33,000  Level FlightAware
12:10AM 25.2350 -79.5590 114° Southeast 517 595 33,000  Level FlightAware
12:10AM 25.1950 -79.4630 115° Southeast 519 597 33,000  Level FlightAware
12:11AM 25.1500 -79.3510 114° Southeast 519 597 33,000  Level FlightAware
12:12AM 25.0960 -79.2190 114° Southeast 521 600 33,000  Level FlightAware
12:13AM 25.0260 -79.0500 115° Southeast 518 596 33,000  Level FlightAware
12:14AM 24.9570 -78.8830 114° Southeast 518 596 33,000  Level FlightAware
12:16AM 24.8730 -78.6820 115° Southeast 517 595 33,000  Level FlightAware
12:16AM 24.8280 -78.5730 114° Southeast 517 595 33,000  Level FlightAware
12:17AM 24.7940 -78.4920 115° Southeast 516 594 33,000  Level FlightAware
12:18AM 24.7480 -78.3830 115° Southeast 516 594 33,000  Level FlightAware
12:19AM 24.6930 -78.2500 114° Southeast 515 593 33,000  Level FlightAware
12:20AM 24.6390 -78.1210 115° Southeast 515 593 33,000  Level FlightAware
12:20AM 24.6060 -78.0400 114° Southeast 515 593 33,000  Level FlightAware
12:21AM 24.5730 -77.9580 114° Southeast 515 593 33,000  Level FlightAware
12:22AM 24.5400 -77.8770 114° Southeast 515 593 33,000  Level FlightAware
12:22AM 24.5080 -77.7960 113° Southeast 515 593 33,000  Level FlightAware
12:23AM 24.4660 -77.6940 114° Southeast 515 593 33,000  Level FlightAware
12:24AM 24.4330 -77.6130 114° Southeast 515 593 33,000  Level FlightAware
12:25AM 24.4000 -77.5310 114° Southeast 515 593 33,000  Level FlightAware
12:25AM 24.3670 -77.4500 114° Southeast 515 593 33,000  Level FlightAware
12:26AM 24.3340 -77.3690 114° Southeast 515 593 33,000  Level FlightAware
12:27AM 24.2930 -77.2670 114° Southeast 515 593 33,000  Level FlightAware
12:27AM 24.2600 -77.1860 114° Southeast 515 593 33,000  Level FlightAware
12:28AM 24.2270 -77.1050 114° Southeast 515 593 33,000  Level FlightAware
12:29AM 24.1940 -77.0240 114° Southeast 515 593 33,000  Level FlightAware
12:29AM 24.0633 -76.8064 114° Southeast 501 577 33,000  Level Miami Center
12:30AM 24.0047 -76.6700 115° Southeast 496 571 33,000  Level Miami Center
12:31AM 23.9439 -76.5292 115° Southeast 496 571 33,000  Level Miami Center
12:32AM 23.8831 -76.3908 116° Southeast 496 571 33,000  Level Miami Center
12:33AM 23.8303 -76.2706 116° Southeast 496 571 33,000  Level Miami Center
12:34AM 23.7711 -76.1322 115° Southeast 496 571 33,000  Level Miami Center
12:35AM 23.7078 -75.9964 117° Southeast 496 571 33,000  Level Miami Center
12:36AM 23.6483 -75.8586 115° Southeast 496 571 33,000  Level Miami Center
12:37AM 23.5908 -75.7117 113° Southeast 507 583 33,000  Level Miami Center
12:38AM 23.5292 -75.5694 115° Southeast 517 595 33,100  Climbing Miami Center
12:39AM 23.4922 -75.4181 105° East 517 595 33,000 -60 Descending Miami Center
12:40AM 23.4550 -75.2644 105° East 517 595 33,000  Level Miami Center
12:41AM 23.3992 -75.1181 113° Southeast 517 595 33,000  Level Miami Center
12:42AM 23.3283 -74.9650 117° Southeast 517 595 33,000  Level Miami Center
12:43AM 23.2617 -74.8281 118° Southeast 511 588 33,000  Level Miami Center
12:44AM 23.1950 -74.6936 118° Southeast 506 582 33,000  Level Miami Center
12:45AM 23.1325 -74.5614 117° Southeast 501 577 33,000  Level Miami Center
12:46AM 23.0658 -74.4294 119° Southeast 496 571 33,000  Level Miami Center
12:47AM 23.0031 -74.2953 117° Southeast 496 571 33,000  Level Miami Center
12:48AM 22.9400 -74.1611 117° Southeast 491 565 33,000  Level Miami Center
12:49AM 22.8747 -74.0250 117° Southeast 496 571 33,000  Level Miami Center
12:50AM 22.8075 -73.8914 119° Southeast 501 577 33,000  Level Miami Center
12:51AM 22.7419 -73.7531 117° Southeast 501 577 33,000  Level Miami Center
12:52AM 22.6744 -73.6175 118° Southeast 511 588 33,000  Level Miami Center
12:53AM 22.6047 -73.4819 119° Southeast 511 588 33,000  Level Miami Center
12:54AM 22.5431 -73.3397 115° Southeast 511 588 33,000  Level Miami Center
12:55AM 22.4817 -73.2178 119° Southeast 511 588 33,000  Level Miami Center
12:56AM 22.4133 -73.0783 118° Southeast 511 588 33,000  Level Miami Center
12:57AM 22.3453 -72.9389 118° Southeast 511 588 33,000  Level Miami Center
12:58AM 22.2767 -72.7994 118° Southeast 516 594 33,000  Level Miami Center
12:59AM 22.2106 -72.6625 118° Southeast 516 594 33,000  Level Miami Center
01:00AM 22.1397 -72.5258 119° Southeast 511 588 33,000  Level Miami Center
01:01AM 22.0711 -72.3894 118° Southeast 511 588 33,000  Level Miami Center
01:02AM 22.0044 -72.2528 118° Southeast 511 588 33,000  Level Miami Center
01:03AM 21.9378 -72.1164 118° Southeast 511 588 33,000  Level Miami Center
01:04AM 21.8708 -71.9825 118° Southeast 511 588 33,000  Level Miami Center
01:05AM 21.8019 -71.8508 119° Southeast 511 588 33,000  Level Miami Center
01:06AM 21.7369 -71.7194 118° Southeast 511 588 33,000  Level Miami Center
01:07AM 21.6697 -71.5858 118° Southeast 511 588 33,000  Level Miami Center
01:08AM 21.6050 -71.4592 119° Southeast 504 580 33,000  Level Miami Center
01:09AM 21.5397 -71.3300 118° Southeast 494 568 33,000  Level Miami Center
01:10AM 21.4661 -71.1928 120° Southeast 487 560 33,000  Level Miami Center
01:11AM 21.4122 -71.0928 120° Southeast 487 560 33,000  Level Miami Center
01:12AM 21.3019 -70.9394 128° Southeast 465 535 33,000  Level Miami Center
01:13AM 21.2206 -70.8250 127° Southeast 476 548 33,000  Level Miami Center
01:14AM 21.1367 -70.7089 128° Southeast 481 554 33,000  Level Miami Center
01:15AM 21.0528 -70.5906 127° Southeast 493 567 33,000  Level Miami Center
01:16AM 20.9667 -70.4725 128° Southeast 498 573 33,000  Level Miami Center
01:17AM 20.8933 -70.3694 127° Southeast 498 573 33,000  Level Miami Center
01:18AM 20.8092 -70.2514 127° Southeast 498 573 33,000  Level Miami Center
01:19AM 20.7272 -70.1336 127° Southeast 498 573 33,000  Level Miami Center
01:20AM 20.6428 -70.0183 128° Southeast 498 573 33,000  Level Miami Center
01:21AM 20.5564 -69.8986 128° Southeast 498 573 33,000  Level Miami Center
01:22AM 20.4719 -69.7836 128° Southeast 498 573 33,000  Level Miami Center
01:23AM 20.3894 -69.6686 127° Southeast 498 573 33,000  Level Miami Center
01:24AM 20.3031 -69.5539 129° Southeast 498 573 33,000  Level Miami Center
01:25AM 20.2206 -69.4369 127° Southeast 498 573 33,000  Level Miami Center
01:26AM 20.1361 -69.3267 129° Southeast 493 567 33,000  Level Miami Center
01:27AM 20.0517 -69.2169 129° Southeast 488 562 33,000  Level Miami Center
01:28AM 19.9711 -69.1067 128° Southeast 488 562 33,000  Level Miami Center
01:29AM 19.8886 -68.9947 128° Southeast 488 562 33,000  Level Miami Center
01:30AM 19.8058 -68.8808 128° Southeast 488 562 33,000  Level Miami Center
01:31AM 19.7231 -68.7689 128° Southeast 488 562 33,000  Level Miami Center
01:32AM 19.6403 -68.6553 128° Southeast 488 562 33,000  Level Miami Center
01:33AM 19.5533 -68.5461 130° Southeast 488 562 33,000  Level Miami Center
01:34AM 19.4617 -68.4222 128° Southeast 488 562 33,000  Level Miami Center
01:40AM 18.9570 -67.7810 128° Southeast 490 564 33,000  Level FlightAware
01:40AM 18.8900 -67.7180 138° Southeast 490 564 33,000  Level FlightAware
01:41AM 18.8220 -67.6540 138° Southeast 490 564 33,000  Level FlightAware
01:42AM 18.7650 -67.5990 138° Southeast 490 564 33,000  Level FlightAware
01:42AM 18.7080 -67.5450 138° Southeast 490 564 33,000  Level FlightAware
01:43AM 18.6510 -67.4900 138° Southeast 490 564 33,000  Level FlightAware
01:44AM 18.5930 -67.4360 139° Southeast 490 564 33,000  Level FlightAware
01:45AM 18.5220 -67.3680 138° Southeast 490 564 33,000  Level FlightAware
01:45AM 18.3890 -67.2490 140° Southeast 487 560 33,000  Level FlightAware
01:46AM 18.3140 -67.1780 138° Southeast 489 563 33,000  Level FlightAware
01:47AM 18.2470 -67.1150 138° Southeast 490 564 33,000  Level FlightAware
01:47AM 18.1690 -67.0420 138° Southeast 490 564 33,000  Level FlightAware
01:48AM 18.1000 -66.9780 139° Southeast 491 565 33,000  Level FlightAware
01:49AM 18.0330 -66.9140 138° Southeast 490 564 33,000  Level FlightAware
01:50AM 17.9580 -66.8440 138° Southeast 492 566 33,000  Level FlightAware
01:50AM 17.8890 -66.7800 139° Southeast 491 565 33,000  Level FlightAware
01:51AM 17.8120 -66.7090 139° Southeast 491 565 33,000  Level FlightAware
01:52AM 17.7440 -66.6450 138° Southeast 491 565 33,000  Level FlightAware
01:52AM 17.6830 -66.5870 138° Southeast 492 566 33,000  Level FlightAware
01:53AM 17.6030 -66.5140 139° Southeast 491 565 33,000  Level FlightAware
01:54AM 17.5320 -66.4490 139° Southeast 491 565 33,000  Level FlightAware
01:54AM 17.4720 -66.3940 139° Southeast 490 564 33,000  Level FlightAware
01:55AM 17.4070 -66.3310 137° Southeast 490 564 33,000  Level FlightAware
01:56AM 17.3490 -66.2770 138° Southeast 490 564 33,000  Level FlightAware
01:57AM 17.2780 -66.2100 138° Southeast 490 564 33,000  Level FlightAware
01:57AM 17.2200 -66.1560 138° Southeast 490 564 33,000  Level FlightAware
01:58AM 17.1630 -66.1020 138° Southeast 490 564 33,000  Level FlightAware
01:59AM 17.1060 -66.0480 138° Southeast 490 564 33,000  Level FlightAware
01:59AM 17.0490 -65.9940 138° Southeast 490 564 33,000  Level FlightAware
02:00AM 16.9770 -65.9260 138° Southeast 490 564 33,000  Level FlightAware
02:01AM 16.9200 -65.8730 138° Southeast 490 564 33,000  Level FlightAware
02:01AM 16.8620 -65.8190 138° Southeast 490 564 33,000  Level FlightAware
02:02AM 16.8050 -65.7650 138° Southeast 490 564 33,000  Level FlightAware
02:03AM 16.7480 -65.7110 138° Southeast 490 564 33,000  Level FlightAware
02:03AM 16.6900 -65.6570 138° Southeast 490 564 33,000  Level FlightAware
02:04AM 16.6190 -65.5900 138° Southeast 490 564 33,000  Level FlightAware
02:05AM 16.3833 -65.3833 138° Southeast 480 552 33,000  Level San Juan Center
02:06AM 16.2667 -65.2667 136° Southeast 480 552 33,000  Level San Juan Center
02:07AM 16.1667 -65.1833 141° Southeast 480 552 33,000  Level San Juan Center
02:08AM 16.0500 -65.1000 146° Southeast 480 552 33,000  Level San Juan Center
02:09AM 15.9500 -65.0167 141° Southeast 470 541 33,000  Level San Juan Center
02:10AM 15.8500 -64.9333 141° Southeast 480 552 33,000  Level San Juan Center
02:11AM 15.7500 -64.8167 132° Southeast 480 552 33,000  Level San Juan Center
02:12AM 15.6500 -64.7167 136° Southeast 500 575 33,000  Level San Juan Center
02:13AM 15.5500 -64.6167 136° Southeast 490 564 33,000  Level San Juan Center
02:14AM 15.4500 -64.5333 141° Southeast 480 552 33,000  Level San Juan Center
02:15AM 15.3500 -64.4333 136° Southeast 490 564 33,000  Level San Juan Center
02:16AM 15.2500 -64.3500 141° Southeast 490 564 33,000  Level San Juan Center
02:18AM 15.1262 -64.2468 141° Southeast  Level FlightAware Approximate
02:25AM 14.3454 -63.7350 149° Southeast  Level FlightAware Approximate
02:26AM 14.2313 -63.6659 150° Southeast  Level FlightAware Approximate
02:27AM 14.1168 -63.5973 150° Southeast  Level FlightAware Approximate
02:28AM 14.0016 -63.5300 150° Southeast  Level FlightAware Approximate
02:29AM 13.8864 -63.4628 150° Southeast  Level FlightAware Approximate
02:30AM 13.7711 -63.3956 150° Southeast  Level FlightAware Approximate
02:31AM 13.6559 -63.3286 151° Southeast  Level FlightAware Approximate
02:32AM 13.5406 -63.2616 151° Southeast  Level FlightAware Approximate
02:33AM 13.4253 -63.1946 151° Southeast  Level FlightAware Approximate
02:34AM 13.3100 -63.1277 151° Southeast  Level FlightAware Approximate
02:35AM 13.1955 -63.0594 148° Southeast  Level FlightAware Approximate
02:35AM 13.1910 -63.0330 148° Southeast 472 543 33,000  Level FlightAware
02:36AM 13.1430 -63.0030 149° Southeast 472 543 33,000  Level FlightAware
02:36AM 13.0630 -62.9540 149° Southeast 472 543 33,000  Level FlightAware
02:37AM 13.0000 -62.9150 149° Southeast 472 543 33,000  Level FlightAware
02:38AM 12.9360 -62.8760 149° Southeast 472 543 33,000  Level FlightAware
02:38AM 12.8720 -62.8360 149° Southeast 472 543 33,000  Level FlightAware
02:39AM 12.8090 -62.7970 149° Southeast 472 543 33,000  Level FlightAware
02:40AM 12.7290 -62.7480 149° Southeast 472 543 33,000  Level FlightAware
02:41AM 12.6650 -62.7090 149° Southeast 472 543 33,000  Level FlightAware
02:41AM 12.6020 -62.6700 149° Southeast 472 543 33,000  Level FlightAware
02:42AM 12.5380 -62.6310 149° Southeast 472 543 33,000  Level FlightAware
02:43AM 12.4740 -62.5920 149° Southeast 472 543 33,000  Level FlightAware
02:43AM 12.4110 -62.5520 148° Southeast 472 543 33,000  Level FlightAware
02:44AM 12.3310 -62.5030 149° Southeast 472 543 33,000  Level FlightAware
02:45AM 12.2680 -62.4640 149° Southeast 472 543 33,000  Level FlightAware
02:47AM 12.0720 -62.3463 150° Southeast  Level FlightAware Approximate
02:48AM 11.9578 -62.2778 150° Southeast  Level FlightAware Approximate
02:49AM 11.8435 -62.2094 150° Southeast  Level FlightAware Approximate
02:50AM 11.7291 -62.1411 150° Southeast  Level FlightAware Approximate
02:51AM 11.6147 -62.0730 150° Southeast  Level FlightAware Approximate
02:52AM 11.5003 -62.0050 150° Southeast  Level FlightAware Approximate
02:53AM 11.3859 -61.9370 150° Southeast  Level FlightAware Approximate
02:54AM 11.2715 -61.8691 150° Southeast  Level FlightAware Approximate
02:55AM 11.1570 -61.8012 150° Southeast  Level FlightAware Approximate
02:56AM 11.0426 -61.7334 150° Southeast  Level FlightAware Approximate
02:57AM 10.9281 -61.6656 150° Southeast  Level FlightAware Approximate
02:58AM 10.8136 -61.5979 150° Southeast  Level FlightAware Approximate
02:59AM 10.6991 -61.5303 150° Southeast  Level FlightAware Approximate
03:00AM 10.5846 -61.4627 150° Southeast  Level FlightAware Approximate
03:01AM 10.4700 -61.3951 150° Southeast  Level FlightAware Approximate
03:02AM 10.3645 -61.3142 141° Southeast  Level FlightAware Approximate
03:03AM 10.2609 -61.2304 141° Southeast  Level FlightAware Approximate
03:04AM 10.1572 -61.1466 142° Southeast  Level FlightAware Approximate
03:05AM 10.0536 -61.0630 142° Southeast  Level FlightAware Approximate
03:06AM 9.9499 -60.9794 142° Southeast  Level FlightAware Approximate
03:07AM 9.8462 -60.8958 142° Southeast  Level FlightAware Approximate
03:08AM 9.7425 -60.8123 142° Southeast  Level FlightAware Approximate
03:09AM 9.6387 -60.7288 142° Southeast  Level FlightAware Approximate
03:10AM 9.5350 -60.6454 142° Southeast  Level FlightAware Approximate
03:11AM 9.4312 -60.5621 142° Southeast  Level FlightAware Approximate
03:12AM 9.3274 -60.4787 142° Southeast  Level FlightAware Approximate
03:13AM 9.2234 -60.3957 142° Southeast  Level FlightAware Approximate
03:14AM 9.1190 -60.3132 142° Southeast  Level FlightAware Approximate
03:15AM 9.0146 -60.2308 142° Southeast  Level FlightAware Approximate
03:16AM 8.9102 -60.1484 142° Southeast  Level FlightAware Approximate
03:17AM 8.8057 -60.0661 142° Southeast  Level FlightAware Approximate
03:18AM 8.7012 -59.9838 142° Southeast  Level FlightAware Approximate
03:19AM 8.5967 -59.9016 142° Southeast  Level FlightAware Approximate
03:20AM 8.4922 -59.8194 142° Southeast  Level FlightAware Approximate
03:21AM 8.3877 -59.7372 142° Southeast  Level FlightAware Approximate
03:22AM 8.2831 -59.6551 142° Southeast  Level FlightAware Approximate
03:23AM 8.1785 -59.5731 142° Southeast  Level FlightAware Approximate
03:24AM 8.0740 -59.4910 142° Southeast  Level FlightAware Approximate
03:25AM 7.9694 -59.4091 142° Southeast  Level FlightAware Approximate
03:26AM 7.8647 -59.3271 142° Southeast  Level FlightAware Approximate
03:27AM 7.7601 -59.2453 142° Southeast  Level FlightAware Approximate
03:28AM 7.6555 -59.1634 142° Southeast  Level FlightAware Approximate
03:29AM 7.5508 -59.0816 142° Southeast  Level FlightAware Approximate
03:30AM 7.4461 -58.9998 142° Southeast  Level FlightAware Approximate
03:31AM 7.3414 -58.9181 142° Southeast  Level FlightAware Approximate
03:32AM 7.2367 -58.8364 142° Southeast  Level FlightAware Approximate
03:33AM 7.1320 -58.7547 142° Southeast  Level FlightAware Approximate
03:34AM 7.0273 -58.6731 142° Southeast  Level FlightAware Approximate
03:35AM 6.9225 -58.5915 142° Southeast  Level FlightAware Approximate
03:36AM 6.8177 -58.5100 142° Southeast  Level FlightAware Approximate
03:37AM 6.7130 -58.4285 142° Southeast  Level FlightAware Approximate
03:38AM 6.6082 -58.3470 142° Southeast  Level FlightAware Approximate
03:39AM 6.5034 -58.2656 142° Southeast  Level FlightAware Approximate
03:40AM 6.3835 -58.2110 159° South  Level FlightAware Approximate
03:41AM 6.2601 -58.1628 159° South  Level FlightAware Approximate
03:42AM 6.1366 -58.1147 159° South  Level FlightAware Approximate
03:43AM 6.0132 -58.0666 159° South  Level FlightAware Approximate
03:44AM 5.8897 -58.0185 159° South  Level FlightAware Approximate
03:45AM 5.7662 -57.9704 159° South  Level FlightAware Approximate
03:46AM 5.6428 -57.9223 159° South  Level FlightAware Approximate
03:47AM 5.5193 -57.8743 159° South  Level FlightAware Approximate
03:48AM 5.3958 -57.8263 159° South  Level FlightAware Approximate
03:49AM 5.2724 -57.7783 159° South  Level FlightAware Approximate
03:50AM 5.1489 -57.7303 159° South  Level FlightAware Approximate
03:51AM 5.0254 -57.6823 159° South  Level FlightAware Approximate
03:52AM 4.9019 -57.6344 159° South  Level FlightAware Approximate
03:53AM 4.7784 -57.5865 159° South  Level FlightAware Approximate
03:54AM 4.6549 -57.5386 159° South  Level FlightAware Approximate
03:55AM 4.5314 -57.4907 159° South  Level FlightAware Approximate
03:56AM 4.4079 -57.4428 159° South  Level FlightAware Approximate
03:57AM 4.2844 -57.3949 159° South  Level FlightAware Approximate
03:58AM 4.1609 -57.3471 159° South  Level FlightAware Approximate
03:59AM 4.0374 -57.2993 159° South  Level FlightAware Approximate
04:00AM 3.9139 -57.2514 159° South  Level FlightAware Approximate
04:01AM 3.7904 -57.2037 159° South  Level FlightAware Approximate
04:02AM 3.6669 -57.1559 159° South  Level FlightAware Approximate
04:03AM 3.5433 -57.1081 159° South  Level FlightAware Approximate
04:04AM 3.4198 -57.0603 159° South  Level FlightAware Approximate
04:05AM 3.2963 -57.0127 159° South  Level FlightAware Approximate
04:06AM 3.1726 -56.9653 159° South  Level FlightAware Approximate
04:07AM 3.0490 -56.9179 159° South  Level FlightAware Approximate
04:08AM 2.9253 -56.8705 159° South  Level FlightAware Approximate
04:09AM 2.8017 -56.8231 159° South  Level FlightAware Approximate
04:10AM 2.6780 -56.7757 159° South  Level FlightAware Approximate
04:11AM 2.5544 -56.7283 159° South  Level FlightAware Approximate
04:12AM 2.4307 -56.6809 159° South  Level FlightAware Approximate
04:13AM 2.3071 -56.6335 159° South  Level FlightAware Approximate
04:14AM 2.1834 -56.5862 159° South  Level FlightAware Approximate
04:15AM 2.0598 -56.5388 159° South  Level FlightAware Approximate
04:16AM 1.9361 -56.4915 159° South  Level FlightAware Approximate
04:17AM 1.8125 -56.4442 159° South  Level FlightAware Approximate
04:18AM 1.6888 -56.3968 159° South  Level FlightAware Approximate
04:19AM 1.5651 -56.3495 159° South  Level FlightAware Approximate
04:20AM 1.4415 -56.3022 159° South  Level FlightAware Approximate
04:21AM 1.3178 -56.2549 159° South  Level FlightAware Approximate
04:22AM 1.1941 -56.2076 159° South  Level FlightAware Approximate
04:23AM 1.0705 -56.1603 159° South  Level FlightAware Approximate
04:24AM 0.9493 -56.1074 153° Southeast  Level FlightAware Approximate
04:25AM 0.8314 -56.0471 153° Southeast  Level FlightAware Approximate
04:26AM 0.7135 -55.9869 153° Southeast  Level FlightAware Approximate
04:27AM 0.5956 -55.9266 153° Southeast  Level FlightAware Approximate
04:28AM 0.4777 -55.8663 153° Southeast  Level FlightAware Approximate
04:29AM 0.3598 -55.8060 153° Southeast  Level FlightAware Approximate
04:30AM 0.2419 -55.7458 153° Southeast  Level FlightAware Approximate
04:31AM 0.1240 -55.6855 153° Southeast  Level FlightAware Approximate
04:32AM 0.0061 -55.6253 153° Southeast  Level FlightAware Approximate
04:33AM -0.1117 -55.5650 153° Southeast  Level FlightAware Approximate
04:34AM -0.2296 -55.5047 153° Southeast  Level FlightAware Approximate
04:35AM -0.3475 -55.4445 153° Southeast  Level FlightAware Approximate
04:36AM -0.4654 -55.3842 153° Southeast  Level FlightAware Approximate
04:37AM -0.5833 -55.3240 153° Southeast  Level FlightAware Approximate
04:38AM -0.7012 -55.2637 153° Southeast  Level FlightAware Approximate
04:39AM -0.8191 -55.2034 153° Southeast  Level FlightAware Approximate
04:40AM -0.9370 -55.1432 153° Southeast  Level FlightAware Approximate
04:41AM -1.0549 -55.0829 153° Southeast  Level FlightAware Approximate
04:42AM -1.1727 -55.0226 153° Southeast  Level FlightAware Approximate
04:43AM -1.2906 -54.9623 153° Southeast  Level FlightAware Approximate
04:44AM -1.4085 -54.9020 153° Southeast  Level FlightAware Approximate
04:45AM -1.5264 -54.8417 153° Southeast  Level FlightAware Approximate
04:46AM -1.6443 -54.7814 153° Southeast  Level FlightAware Approximate
04:47AM -1.7622 -54.7211 153° Southeast  Level FlightAware Approximate
04:48AM -1.8800 -54.6608 153° Southeast  Level FlightAware Approximate
04:49AM -1.9979 -54.6004 153° Southeast  Level FlightAware Approximate
04:50AM -2.1158 -54.5401 153° Southeast  Level FlightAware Approximate
04:51AM -2.2337 -54.4798 153° Southeast  Level FlightAware Approximate
04:52AM -2.3515 -54.4194 153° Southeast  Level FlightAware Approximate
04:53AM -2.4694 -54.3590 153° Southeast  Level FlightAware Approximate
04:54AM -2.5873 -54.2986 153° Southeast  Level FlightAware Approximate
04:55AM -2.7051 -54.2383 153° Southeast  Level FlightAware Approximate
04:56AM -2.8230 -54.1779 153° Southeast  Level FlightAware Approximate
04:57AM -2.9408 -54.1175 153° Southeast  Level FlightAware Approximate
04:58AM -3.0587 -54.0570 153° Southeast  Level FlightAware Approximate
04:59AM -3.1765 -53.9966 153° Southeast  Level FlightAware Approximate
05:00AM -3.2944 -53.9361 153° Southeast  Level FlightAware Approximate
05:01AM -3.4122 -53.8757 153° Southeast  Level FlightAware Approximate
05:02AM -3.5301 -53.8152 153° Southeast  Level FlightAware Approximate
05:03AM -3.6479 -53.7547 153° Southeast  Level FlightAware Approximate
05:04AM -3.7657 -53.6942 153° Southeast  Level FlightAware Approximate
05:05AM -3.8835 -53.6336 153° Southeast  Level FlightAware Approximate
05:06AM -4.0014 -53.5731 153° Southeast  Level FlightAware Approximate
05:07AM -4.1192 -53.5125 153° Southeast  Level FlightAware Approximate
05:08AM -4.2370 -53.4520 153° Southeast  Level FlightAware Approximate
05:09AM -4.3548 -53.3913 153° Southeast  Level FlightAware Approximate
05:10AM -4.4726 -53.3307 153° Southeast  Level FlightAware Approximate
05:11AM -4.5904 -53.2701 153° Southeast  Level FlightAware Approximate
05:12AM -4.7082 -53.2094 153° Southeast  Level FlightAware Approximate
05:13AM -4.8260 -53.1488 153° Southeast  Level FlightAware Approximate
05:14AM -4.9438 -53.0881 153° Southeast  Level FlightAware Approximate
05:15AM -5.0615 -53.0273 153° Southeast  Level FlightAware Approximate
05:16AM -5.1793 -52.9666 153° Southeast  Level FlightAware Approximate
05:17AM -5.2971 -52.9058 153° Southeast  Level FlightAware Approximate
05:18AM -5.4148 -52.8450 153° Southeast  Level FlightAware Approximate
05:19AM -5.5326 -52.7842 153° Southeast  Level FlightAware Approximate
05:20AM -5.6503 -52.7234 153° Southeast  Level FlightAware Approximate
05:21AM -5.7681 -52.6625 153° Southeast  Level FlightAware Approximate
05:22AM -5.8858 -52.6016 153° Southeast  Level FlightAware Approximate
05:23AM -6.0035 -52.5407 153° Southeast  Level FlightAware Approximate
05:24AM -6.1213 -52.4798 153° Southeast  Level FlightAware Approximate
05:25AM -6.2390 -52.4188 153° Southeast  Level FlightAware Approximate
05:26AM -6.3567 -52.3578 153° Southeast  Level FlightAware Approximate
05:27AM -6.4744 -52.2968 153° Southeast  Level FlightAware Approximate
05:28AM -6.5921 -52.2357 153° Southeast  Level FlightAware Approximate
05:29AM -6.7097 -52.1747 153° Southeast  Level FlightAware Approximate
05:30AM -6.8274 -52.1136 153° Southeast  Level FlightAware Approximate
05:31AM -6.9451 -52.0524 153° Southeast  Level FlightAware Approximate
05:32AM -7.0627 -51.9912 153° Southeast  Level FlightAware Approximate
05:33AM -7.1804 -51.9300 153° Southeast  Level FlightAware Approximate
05:34AM -7.2980 -51.8688 153° Southeast  Level FlightAware Approximate
05:35AM -7.4157 -51.8076 153° Southeast  Level FlightAware Approximate
05:36AM -7.5333 -51.7463 153° Southeast  Level FlightAware Approximate
05:37AM -7.6509 -51.6849 153° Southeast  Level FlightAware Approximate
05:38AM -7.7685 -51.6236 153° Southeast  Level FlightAware Approximate
05:39AM -7.8861 -51.5622 153° Southeast  Level FlightAware Approximate
05:40AM -8.0037 -51.5007 153° Southeast  Level FlightAware Approximate
05:41AM -8.1213 -51.4393 153° Southeast  Level FlightAware Approximate
05:42AM -8.2389 -51.3778 153° Southeast  Level FlightAware Approximate
05:43AM -8.3565 -51.3162 153° Southeast  Level FlightAware Approximate
05:44AM -8.4740 -51.2547 153° Southeast  Level FlightAware Approximate
05:45AM -8.5916 -51.1930 153° Southeast  Level FlightAware Approximate
05:46AM -8.7091 -51.1314 153° Southeast  Level FlightAware Approximate
05:47AM -8.8266 -51.0697 153° Southeast  Level FlightAware Approximate
05:48AM -8.9442 -51.0080 153° Southeast  Level FlightAware Approximate
05:49AM -9.0617 -50.9462 153° Southeast  Level FlightAware Approximate
05:50AM -9.1792 -50.8844 153° Southeast  Level FlightAware Approximate
05:51AM -9.2967 -50.8225 153° Southeast  Level FlightAware Approximate
05:52AM -9.4141 -50.7606 153° Southeast  Level FlightAware Approximate
05:53AM -9.5316 -50.6987 153° Southeast  Level FlightAware Approximate
05:54AM -9.6490 -50.6367 153° Southeast  Level FlightAware Approximate
05:55AM -9.7665 -50.5747 153° Southeast  Level FlightAware Approximate
05:56AM -9.8839 -50.5126 152° Southeast  Level FlightAware Approximate
05:57AM -10.0013 -50.4505 152° Southeast  Level FlightAware Approximate
05:58AM -10.1187 -50.3884 152° Southeast  Level FlightAware Approximate
05:58AM -10.1850 -50.9720 152° Southeast 491 565 33,000  Level FlightAware
06:00AM -10.4118 -50.8420 151° Southeast  Level Estimated
06:00AM -10.4690 -50.8290 151° Southeast 491 565 33,000  Level FlightAware
06:01AM -10.5640 -50.7810 154° Southeast 491 565 33,000  Level FlightAware
06:01AM -10.6330 -50.7450 153° Southeast 491 565 33,000  Level FlightAware
06:02AM -10.7420 -50.6910 154° Southeast 491 565 33,000  Level FlightAware
06:03AM -10.8260 -50.6490 154° Southeast 490 564 33,000  Level FlightAware
06:03AM -10.8960 -50.6130 153° Southeast 490 564 33,000  Level FlightAware
06:04AM -10.9870 -50.5670 154° Southeast 489 563 33,000  Level FlightAware
06:05AM -11.0710 -50.5240 153° Southeast 490 564 33,000  Level FlightAware
06:05AM -11.1470 -50.4860 154° Southeast 491 565 33,000  Level FlightAware
06:06AM -11.2280 -50.4450 154° Southeast 491 565 33,000  Level FlightAware
06:07AM -11.3680 -50.3740 154° Southeast 491 565 33,000  Level FlightAware
06:08AM -11.4520 -50.3300 153° Southeast 491 565 33,000  Level FlightAware
06:09AM -11.5450 -50.2830 154° Southeast 492 566 33,000  Level FlightAware
06:09AM -11.6530 -50.2280 153° Southeast 494 568 33,000  Level FlightAware
06:10AM -11.7320 -50.1880 154° Southeast 496 571 33,000  Level FlightAware
06:11AM -11.8180 -50.1440 153° Southeast 496 571 33,000  Level FlightAware
06:12AM -11.7720 -50.1670 334° Northwest 496 571 33,000  Level FlightAware
06:13AM -12.0190 -50.0400 153° Southeast 496 571 33,000  Level FlightAware
06:13AM -12.1150 -49.9910 153° Southeast 496 571 33,000  Level FlightAware
06:14AM -12.1100 -49.9940 330° Northwest 496 571 33,000  Level FlightAware
06:15AM -12.1340 -49.9810 152° Southeast 496 571 33,000  Level FlightAware
06:16AM -12.2040 -49.9450 153° Southeast 496 571 33,000  Level FlightAware
06:16AM -12.2730 -49.9090 153° Southeast 496 571 33,000  Level FlightAware
06:17AM -12.3430 -49.8730 153° Southeast 496 571 33,000  Level FlightAware
06:18AM -12.4120 -49.8360 152° Southeast 496 571 33,000  Level FlightAware
06:18AM -12.4990 -49.7910 153° Southeast 496 571 33,000  Level FlightAware
06:19AM -12.5690 -49.7550 153° Southeast 496 571 33,000  Level FlightAware
06:20AM -12.6380 -49.7180 152° Southeast 496 571 33,000  Level FlightAware
06:20AM -12.0660 -50.0170 333° Northwest 33,000  Level FlightAware
06:23AM -12.3104 -49.8721 150° Southeast  Level Estimated
06:24AM -12.4249 -49.8041 150° Southeast  Level Estimated
06:25AM -12.5394 -49.7361 150° Southeast  Level Estimated
06:26AM -12.6539 -49.6679 150° Southeast  Level Estimated
06:27AM -12.7684 -49.5998 150° Southeast  Level Estimated
06:28AM -12.8829 -49.5315 150° Southeast  Level Estimated
06:29AM -12.9973 -49.4632 150° Southeast  Level Estimated
06:30AM -13.1118 -49.3948 150° Southeast  Level Estimated
06:31AM -13.2262 -49.3264 150° Southeast  Level Estimated
06:32AM -13.3406 -49.2579 150° Southeast  Level Estimated
06:33AM -13.4549 -49.1893 150° Southeast  Level Estimated
06:34AM -13.5693 -49.1207 150° Southeast  Level Estimated
06:34AM -14.6730 -48.6560 150° Southeast 499 574 33,000  Level FlightAware
06:35AM -14.7430 -48.6030 144° Southeast 500 575 33,000  Level FlightAware
06:35AM -14.8170 -48.5380 140° Southeast 499 574 33,000  Level FlightAware
06:37AM -14.9640 -48.4390 147° Southeast 497 572 33,000  Level FlightAware
06:39AM -15.1771 -48.3049 149° Southeast  Level Estimated
06:40AM -15.2902 -48.2336 149° Southeast  Level Estimated
06:41AM -15.4033 -48.1622 149° Southeast  Level Estimated
06:42AM -15.5164 -48.0907 149° Southeast  Level Estimated
06:43AM -15.6294 -48.0192 149° Southeast  Level Estimated
06:44AM -15.7425 -47.9476 149° Southeast  Level Estimated
06:44AM -15.9410 -47.9780 149° Southeast 495 570 33,000  Level FlightAware
06:45AM -15.8555 -47.8759 149° Southeast  Level Estimated
06:45AM -16.0380 -47.9170 149° Southeast 495 570 33,000  Level FlightAware
06:46AM -16.1220 -47.8650 149° Southeast 495 570 33,000  Level FlightAware
06:47AM -16.1880 -47.8230 149° Southeast 495 570 33,000  Level FlightAware
06:48AM -16.3230 -47.7430 150° Southeast 495 570 33,000  Level FlightAware
06:48AM -16.4220 -47.6830 150° Southeast 495 570 33,000  Level FlightAware
06:49AM -16.5040 -47.6320 149° Southeast 495 570 33,000  Level FlightAware
06:50AM -16.5920 -47.5780 150° Southeast 494 568 33,000  Level FlightAware
06:51AM -16.6710 -47.5300 150° Southeast 493 567 33,000  Level FlightAware
06:51AM -16.7480 -47.4830 150° Southeast 493 567 33,000  Level FlightAware
06:52AM -16.8270 -47.4330 149° Southeast 493 567 33,000  Level FlightAware
06:53AM -16.8940 -47.3910 149° Southeast 493 567 33,000  Level FlightAware
06:53AM -16.9600 -47.3490 149° Southeast 493 567 33,000  Level FlightAware
06:54AM -17.0270 -47.3070 149° Southeast 493 567 33,000  Level FlightAware
06:55AM -17.0930 -47.2660 149° Southeast 493 567 33,000  Level FlightAware
06:55AM -17.1760 -47.2130 149° Southeast 493 567 33,000  Level FlightAware
06:56AM -17.2430 -47.1720 150° Southeast 493 567 33,000  Level FlightAware
06:57AM -17.3090 -47.1300 149° Southeast 493 567 33,000  Level FlightAware
06:57AM -17.3760 -47.0880 149° Southeast 493 567 33,000  Level FlightAware
06:58AM -17.4420 -47.0460 149° Southeast 493 567 33,000  Level FlightAware
06:59AM -17.5090 -47.0040 149° Southeast 493 567 33,000  Level FlightAware
07:00AM -17.5920 -46.9520 149° Southeast 493 567 33,000  Level FlightAware
07:00AM -17.6580 -46.9100 149° Southeast 493 567 33,000  Level FlightAware
07:01AM -17.7250 -46.8680 149° Southeast 493 567 33,000 -120 Level FlightAware
07:04AM -18.0075 -46.6738 147° Southeast  Level Estimated
07:05AM -18.1183 -46.5975 147° Southeast  Level Estimated
07:06AM -18.2290 -46.5210 147° Southeast  Level Estimated
07:07AM -18.3397 -46.4445 147° Southeast  Level Estimated
07:08AM -18.4504 -46.3679 147° Southeast  Level Estimated
07:09AM -18.5610 -46.2912 147° Southeast  Level Estimated
07:10AM -18.6716 -46.2144 147° Southeast  Level Estimated
07:11AM -18.7821 -46.1375 147° Southeast  Level Estimated
07:12AM -18.8927 -46.0604 147° Southeast  Level Estimated
07:13AM -19.0032 -45.9833 147° Southeast  Level Estimated
07:14AM -19.1136 -45.9061 147° Southeast  Level Estimated
07:15AM -19.2241 -45.8288 147° Southeast  Level Estimated
07:16AM -19.3345 -45.7513 147° Southeast  Level Estimated
07:17AM -19.4448 -45.6738 146° Southeast  Level Estimated
07:18AM -19.5559 -45.5956 146° Southeast  Level Estimated
07:19AM -19.6670 -45.5173 146° Southeast  Level Estimated
07:20AM -19.7780 -45.4389 146° Southeast  Level Estimated
07:21AM -19.8890 -45.3605 146° Southeast  Level Estimated
07:22AM -20.0000 -45.2818 146° Southeast  Level Estimated
07:23AM -20.1109 -45.2031 146° Southeast  Level Estimated
07:24AM -20.2218 -45.1243 146° Southeast  Level Estimated
07:25AM -20.3327 -45.0453 146° Southeast  Level Estimated
07:26AM -20.4435 -44.9663 146° Southeast  Level Estimated
07:27AM -20.5543 -44.8871 146° Southeast  Level Estimated
07:28AM -20.6651 -44.8078 146° Southeast  Level Estimated
07:29AM -20.7758 -44.7284 146° Southeast  Level Estimated
07:30AM -20.8865 -44.6489 146° Southeast  Level Estimated
07:31AM -20.9971 -44.5692 146° Southeast  Level Estimated
07:31AM -21.3640 -44.5670 146° Southeast 453 521 29,500  Level FlightAware
07:31AM -21.4380 -44.5180 148° Southeast 435 501 28,300 -1,020 Descending FlightAware
07:32AM -21.5140 -44.4680 149° Southeast 439 505 28,100 -1,620 Descending FlightAware
07:33AM -21.5720 -44.4300 149° Southeast 414 476 26,200 -1,440 Descending FlightAware
07:33AM -21.6390 -44.3830 147° Southeast 414 476 26,200 -1,620 Level FlightAware
07:35AM -21.8280 -44.2620 149° Southeast 379 436 22,000 -2,040 Descending FlightAware
07:36AM -21.8720 -44.2320 148° Southeast 366 421 21,200 -600 Descending FlightAware
07:37AM -21.9310 -44.1910 147° Southeast 366 421 21,200  Level FlightAware
07:37AM -21.9920 -44.1490 147° Southeast 366 421 21,200  Level FlightAware
07:38AM -22.0400 -44.1150 147° Southeast 366 421 21,200  Level FlightAware
07:39AM -22.0880 -44.0810 147° Southeast 366 421 21,200  Level FlightAware
07:39AM -22.1360 -44.0470 147° Southeast 366 421 21,200 -2,700 Level FlightAware
07:42AM -22.3200 -43.8286 132° Southeast  Level Estimated
07:42AM -22.3760 -43.8960 132° Southeast 11,600  Level FlightAware
07:43AM -22.4240 -43.8640 148° Southeast 299 344 10,800 -1,140 Descending FlightAware
07:43AM -22.4690 -43.8330 148° Southeast 264 304 10,100 -1,080 Descending FlightAware
07:44AM -22.5110 -43.8160 159° South 255 293 9,500 -900 Descending FlightAware
07:44AM -22.5330 -43.8070 159° South 252 290 9,200 -1,140 Descending FlightAware
07:45AM -22.5700 -43.7920 159° South 249 287 8,500 -1,140 Descending FlightAware
07:45AM -22.6030 -43.7800 161° South 246 283 8,100 -780 Descending FlightAware
07:46AM -22.6060 -43.7790 163° South 245 282 8,000 -900 Descending FlightAware
07:46AM -22.6300 -43.7700 161° South 243 280 7,600 -480 Descending FlightAware
07:46AM -22.6560 -43.7590 159° South 243 280 7,600 -780 Level FlightAware
07:48AM -22.7030 -43.6330 112° Southeast 217 250 5,800 -960 Descending FlightAware
07:49AM -22.7060 -43.6150 100° East 217 250 5,500 -1,380 Descending FlightAware
07:49AM -22.7130 -43.5810 103° East 212 244 4,800 -900 Descending FlightAware
07:50AM -22.7180 -43.5560 102° East 212 244 4,700 -360 Descending FlightAware
07:50AM -22.7220 -43.5310 100° East 212 244 4,500 -600 Descending FlightAware
07:50AM -22.7250 -43.5150 101° East 210 242 4,300 -480 Descending FlightAware
07:51AM -22.7300 -43.4890 102° East 213 245 4,200 -540 Descending FlightAware
07:51AM -22.7360 -43.4370 97° East 207 238 3,700 -840 Descending FlightAware
07:52AM -22.7370 -43.4210 94° East 207 238 3,400 -1,080 Descending FlightAware
07:52AM -22.7380 -43.3920 92° East 196 226 2,900 -960 Descending FlightAware
07:52AM -22.7440 -43.3770 113° Southeast 186 214 2,700 -1,080 Descending FlightAware
07:53AM -22.7580 -43.3560 126° Southeast 182 209 2,100 -1,200 Descending FlightAware
07:53AM -22.7690 -43.3380 124° Southeast 177 204 1,600 -1,080 Descending FlightAware
07:54AM -22.7760 -43.3270 125° Southeast 169 194 1,400 -840 Descending FlightAware
07:54AM -22.7890 -43.3080 127° Southeast 151 174 1,000 -780 Descending FlightAware
07:54AM -22.7980 -43.2930 123° Southeast 151 174 700 -780 Descending FlightAware
07:55AM -22.8110 -43.2740 127° Southeast 148 170 300 -780 Descending FlightAware
07:55AM -22.8140 -43.2690 123° Southeast 148 170 200 -180 Descending FlightAware
07:56AM -22.8240 -43.2540 126° Southeast 148 170 200  Level FlightAware